Goodland, KS (67735)

7:25 PM MDT on July 31, 2014 (GMT -0600)
City of Gld Backyard Station (KKSGOODL6) Elev 3711 ft | 39.34 °N, 101.71 °W | Change Station

Current weather conditions updated 1 minute ago

Clear
Clear
80.4 °F
Feels Like 79 °F
N
0.0
Wind Variable Wind from NW

Tomorrow is forecast to be Cooler than today.

Today
High -- | Low -- °F
--% Chance of Precip.
Yesterday
High -- | Low -- °F
Precip. -- in
5:45 AM 7:59 PM
Waxing Crescent, 22% visible
Pressure 30.03 in
Visibility 10.0 miles
Clouds Clear
Heat Index 79 °F
Dew Point 46 °F
Humidity 30%
Rainfall 0.00 in
Snow Depth Not available.
UV 1 out of 12
Pollen 6.30 out of 12
Air Quality Not available.
Flu Activity Not available.
METAR KGLD 010053Z AUTO 27003KT 10SM CLR 27/07 A3014 RMK AO2 SLP168 T02720067

More Conditions Fewer Conditions

Pressure 30.03 in
Visibility 10.0 miles
Clouds Clear
Heat Index 79 °F
Dew Point 46 °F
Humidity 30%
Rainfall 0.00 in
Snow Depth Not available.
UV 1 out of 12
Pollen 6.30 out of 12
Air Quality Not available.
Flu Activity Not available.
METAR KGLD 010053Z AUTO 27003KT 10SM CLR 27/07 A3014 RMK AO2 SLP168 T02720067

More Conditions Fewer Conditions

10-Day Weather Forecast

Almanac

Astronomy

Jul. 31, 2014 Rise Set
Actual Time 5:45 AM MDT 7:59 PM MDT
Civil Twilight 5:15 AM MDT 8:29 PM MDT
Nautical Twilight 4:38 AM MDT 9:06 PM MDT
Astronomical Twilight 3:58 AM MDT 9:46 PM MDT
Moon 10:13 AM MDT (7/31) 10:15 PM MDT (7/31)
Length of Visible Light 15h 14m
Length of Day
14h 14m
Tomorrow will be 1m 55s shorter.
Waxing Crescent, 22% of the Moon is Illuminated
Today
Waxing Crescent
Aug 3
First Quarter
Aug 10
Full
Aug 17
Last Quarter
Aug 25
New

Today's Extremes

State Highs State Lows

Community

WunderPhotos

Upload Photos

1,739,477 photos uploaded!

Nearby

Snow Depth

Station Depth Elevation
No new snow has been reported.

Earthquake Activity

City Distance Mag. Time & Date
No recent earthquake activity has been reported nearby.
Minimum magnitude displayed is 2.5.

Coastal Water Temperatures

Place Temperature
No Stations Reporting

Nearby Weather Stations

Station Location Temp. Heat Index Dew Point Humidity Wind Precip. Elev Updated Type
City of Gld Backyard Station, Goodland, KS 80.4 °F 79 °F 46 °F 30% NW  at  0.0 mph - / hr 3711 ft 7:23 PM MDT Normal
Beaver Creek Weather, Goodland, KS 77.2 °F 79 °F 55 °F 47% SW  at  4.0 mph 0.00 in / hr 3450 ft 7:25 PM MDT Rapid Fire
Leonard Farms, Goodland, KS 79.2 °F 79 °F 52 °F 39% South  at  2.0 mph 0.00 in / hr 3799 ft 7:25 PM MDT Rapid Fire

Show More Stations Show Fewer Stations